North Lebanon, Pennsylvania
Current Conditions -  °F | °C
As of 8:58 PM on Saturday 22 Nov 2014 (Local Time) from KMUI Reporting Station
Clear Clear  
Wind Chill: 33°   Ceiling: Unl
Heat Index: 33°   Visibility: 10mi
Dew Point: 22°   Wind: 2mph
Humidity: 64%   Direction: 360°N
Pressure: 30.23"   Gusts: NA
Location:  40.2957°N, 76.4189°W
Report Text: KMUI 230158Z AUTO 36002KT 10SM CLR 01/M05 A3023 RMK AO2 SLP246 T00061055 $
Loading
Personal Weather Stations






























Interactive Weather Map New forecast layout! Learn more

10-Day Weather Forecast

Advertisements
Track Severe Weather on mobile